sensor_id;sensor_type;location;lat;lon;timestamp;temperature;humidity
16417;DHT22;8317;52.186;5.688;2023-05-14T04:13:47;11.60;99.90
16417;DHT22;8317;52.186;5.688;2023-05-14T04:16:14;11.70;99.90
16417;DHT22;8317;52.186;5.688;2023-05-14T04:45:42;11.60;99.90
16417;DHT22;8317;52.186;5.688;2023-05-14T04:48:10;11.50;99.90
16417;DHT22;8317;52.186;5.688;2023-05-14T04:50:37;11.50;99.90
16417;DHT22;8317;52.186;5.688;2023-05-14T05:02:53;11.70;99.90
16417;DHT22;8317;52.186;5.688;2023-05-14T05:05:22;11.70;99.90
16417;DHT22;8317;52.186;5.688;2023-05-14T05:07:49;11.80;99.90
16417;DHT22;8317;52.186;5.688;2023-05-14T05:10:16;11.80;99.90
16417;DHT22;8317;52.186;5.688;2023-05-14T05:12:42;11.90;99.90
16417;DHT22;8317;52.186;5.688;2023-05-14T05:15:10;11.90;99.90
16417;DHT22;8317;52.186;5.688;2023-05-14T05:17:37;11.80;99.90
16417;DHT22;8317;52.186;5.688;2023-05-14T05:49:36;12.70;99.90
16417;DHT22;8317;52.186;5.688;2023-05-14T05:52:04;12.80;99.90
16417;DHT22;8317;52.186;5.688;2023-05-14T05:54:31;12.80;99.90
16417;DHT22;8317;52.186;5.688;2023-05-14T05:56:59;12.70;99.90
16417;DHT22;8317;52.186;5.688;2023-05-14T05:59:26;12.60;99.90
16417;DHT22;8317;52.186;5.688;2023-05-14T06:01:53;12.90;99.90
16417;DHT22;8317;52.186;5.688;2023-05-14T06:04:20;13.10;99.90
16417;DHT22;8317;52.186;5.688;2023-05-14T06:06:47;13.30;99.90
16417;DHT22;8317;52.186;5.688;2023-05-14T06:09:14;13.40;99.90
16417;DHT22;8317;52.186;5.688;2023-05-14T06:11:40;13.50;99.90
16417;DHT22;8317;52.186;5.688;2023-05-14T06:14:09;13.50;99.90
16417;DHT22;8317;52.186;5.688;2023-05-14T06:16:36;13.30;99.90
16417;DHT22;8317;52.186;5.688;2023-05-14T06:19:02;13.40;99.90
16417;DHT22;8317;52.186;5.688;2023-05-14T06:21:29;13.60;99.90
16417;DHT22;8317;52.186;5.688;2023-05-14T06:23:56;13.60;99.90
16417;DHT22;8317;52.186;5.688;2023-05-14T06:26:23;13.90;99.90
16417;DHT22;8317;52.186;5.688;2023-05-14T06:28:50;13.90;99.90
16417;DHT22;8317;52.186;5.688;2023-05-14T06:31:22;13.80;99.90
16417;DHT22;8317;52.186;5.688;2023-05-14T06:33:49;13.90;99.90
16417;DHT22;8317;52.186;5.688;2023-05-14T06:36:15;14.00;99.90
16417;DHT22;8317;52.186;5.688;2023-05-14T06:38:42;14.00;99.90
16417;DHT22;8317;52.186;5.688;2023-05-14T06:41:09;14.10;99.90
16417;DHT22;8317;52.186;5.688;2023-05-14T06:43:36;14.20;99.90
16417;DHT22;8317;52.186;5.688;2023-05-14T06:46:03;14.30;99.90
16417;DHT22;8317;52.186;5.688;2023-05-14T06:48:31;14.30;99.90
16417;DHT22;8317;52.186;5.688;2023-05-14T06:50:58;14.10;99.90
16417;DHT22;8317;52.186;5.688;2023-05-14T06:53:25;14.10;99.90
16417;DHT22;8317;52.186;5.688;2023-05-14T06:55:52;14.40;99.90
16417;DHT22;8317;52.186;5.688;2023-05-14T06:58:19;14.30;99.90
16417;DHT22;8317;52.186;5.688;2023-05-14T07:00:46;14.30;99.90
16417;DHT22;8317;52.186;5.688;2023-05-14T07:03:13;14.60;99.90
16417;DHT22;8317;52.186;5.688;2023-05-14T07:05:41;14.60;99.90
16417;DHT22;8317;52.186;5.688;2023-05-14T08:51:33;20.70;99.90
16417;DHT22;8317;52.186;5.688;2023-05-14T08:54:01;20.70;99.90
16417;DHT22;8317;52.186;5.688;2023-05-14T09:08:50;21.40;99.90
16417;DHT22;8317;52.186;5.688;2023-05-14T09:11:18;20.80;99.90
16417;DHT22;8317;52.186;5.688;2023-05-14T09:13:46;21.00;99.90
16417;DHT22;8317;52.186;5.688;2023-05-14T09:16:13;21.20;99.90
16417;DHT22;8317;52.186;5.688;2023-05-14T09:21:10;21.70;99.90
16417;DHT22;8317;52.186;5.688;2023-05-14T09:26:08;21.60;99.90
